sensor_id;sensor_type;location;lat;lon;timestamp;P1;durP1;ratioP1;P2;durP2;ratioP2
9968;SDS011;5025;48.890;9.278;2023-11-21T00:01:53;2.33;;;1.60;;
9968;SDS011;5025;48.890;9.278;2023-11-21T00:04:19;1.73;;;1.30;;
9968;SDS011;5025;48.890;9.278;2023-11-21T00:06:44;1.30;;;1.20;;
9968;SDS011;5025;48.890;9.278;2023-11-21T00:09:12;2.63;;;1.47;;
9968;SDS011;5025;48.890;9.278;2023-11-21T00:11:38;2.00;;;1.43;;
9968;SDS011;5025;48.890;9.278;2023-11-21T00:14:03;3.47;;;1.67;;
9968;SDS011;5025;48.890;9.278;2023-11-21T00:16:28;2.20;;;1.50;;
9968;SDS011;5025;48.890;9.278;2023-11-21T00:18:54;2.17;;;1.70;;
9968;SDS011;5025;48.890;9.278;2023-11-21T00:21:19;2.27;;;1.50;;
9968;SDS011;5025;48.890;9.278;2023-11-21T00:23:45;2.67;;;1.50;;
9968;SDS011;5025;48.890;9.278;2023-11-21T00:26:10;1.40;;;1.30;;
9968;SDS011;5025;48.890;9.278;2023-11-21T00:28:35;2.80;;;1.60;;
9968;SDS011;5025;48.890;9.278;2023-11-21T00:31:01;4.17;;;1.80;;
9968;SDS011;5025;48.890;9.278;2023-11-21T00:33:26;1.83;;;1.70;;
9968;SDS011;5025;48.890;9.278;2023-11-21T00:35:52;2.63;;;1.40;;
9968;SDS011;5025;48.890;9.278;2023-11-21T00:38:17;1.87;;;1.60;;
9968;SDS011;5025;48.890;9.278;2023-11-21T00:40:45;3.33;;;1.90;;
9968;SDS011;5025;48.890;9.278;2023-11-21T00:43:10;2.70;;;1.93;;
9968;SDS011;5025;48.890;9.278;2023-11-21T00:45:35;3.07;;;1.80;;
9968;SDS011;5025;48.890;9.278;2023-11-21T00:48:01;4.00;;;2.10;;
9968;SDS011;5025;48.890;9.278;2023-11-21T00:50:27;3.40;;;1.70;;
9968;SDS011;5025;48.890;9.278;2023-11-21T00:52:52;2.70;;;1.87;;
9968;SDS011;5025;48.890;9.278;2023-11-21T00:55:17;2.57;;;1.73;;
9968;SDS011;5025;48.890;9.278;2023-11-21T00:57:43;2.80;;;2.07;;
9968;SDS011;5025;48.890;9.278;2023-11-21T01:00:08;3.90;;;2.00;;
9968;SDS011;5025;48.890;9.278;2023-11-21T01:02:42;2.70;;;1.90;;
9968;SDS011;5025;48.890;9.278;2023-11-21T01:05:09;3.47;;;2.13;;
9968;SDS011;5025;48.890;9.278;2023-11-21T01:07:35;3.00;;;1.90;;
9968;SDS011;5025;48.890;9.278;2023-11-21T01:10:01;4.33;;;2.20;;
9968;SDS011;5025;48.890;9.278;2023-11-21T01:12:27;1.87;;;1.73;;
9968;SDS011;5025;48.890;9.278;2023-11-21T01:14:52;3.90;;;2.00;;
9968;SDS011;5025;48.890;9.278;2023-11-21T01:17:18;1.87;;;1.77;;
9968;SDS011;5025;48.890;9.278;2023-11-21T01:19:43;4.10;;;2.00;;
9968;SDS011;5025;48.890;9.278;2023-11-21T01:22:08;4.20;;;2.00;;
9968;SDS011;5025;48.890;9.278;2023-11-21T01:24:34;3.90;;;2.30;;
9968;SDS011;5025;48.890;9.278;2023-11-21T01:26:59;2.10;;;1.90;;
9968;SDS011;5025;48.890;9.278;2023-11-21T01:29:24;3.20;;;1.83;;
9968;SDS011;5025;48.890;9.278;2023-11-21T01:31:50;1.90;;;1.80;;
9968;SDS011;5025;48.890;9.278;2023-11-21T01:34:15;2.80;;;2.00;;
9968;SDS011;5025;48.890;9.278;2023-11-21T01:36:40;4.40;;;2.13;;
9968;SDS011;5025;48.890;9.278;2023-11-21T01:39:05;4.10;;;2.10;;
9968;SDS011;5025;48.890;9.278;2023-11-21T01:41:35;3.13;;;2.00;;
9968;SDS011;5025;48.890;9.278;2023-11-21T01:44:01;3.70;;;2.10;;
9968;SDS011;5025;48.890;9.278;2023-11-21T01:46:27;2.13;;;1.90;;
9968;SDS011;5025;48.890;9.278;2023-11-21T01:48:54;3.27;;;1.80;;
9968;SDS011;5025;48.890;9.278;2023-11-21T01:51:19;2.83;;;1.80;;
9968;SDS011;5025;48.890;9.278;2023-11-21T01:53:44;4.67;;;1.80;;
9968;SDS011;5025;48.890;9.278;2023-11-21T01:56:11;2.60;;;1.60;;
9968;SDS011;5025;48.890;9.278;2023-11-21T01:58:37;2.20;;;1.70;;
9968;SDS011;5025;48.890;9.278;2023-11-21T02:01:04;3.47;;;1.83;;
9968;SDS011;5025;48.890;9.278;2023-11-21T02:03:30;2.27;;;1.40;;
9968;SDS011;5025;48.890;9.278;2023-11-21T02:05:56;2.00;;;1.47;;
9968;SDS011;5025;48.890;9.278;2023-11-21T02:08:21;2.90;;;1.80;;
9968;SDS011;5025;48.890;9.278;2023-11-21T02:10:46;2.97;;;1.40;;
9968;SDS011;5025;48.890;9.278;2023-11-21T02:13:12;3.13;;;1.63;;
9968;SDS011;5025;48.890;9.278;2023-11-21T02:15:38;1.60;;;1.47;;
9968;SDS011;5025;48.890;9.278;2023-11-21T02:18:03;2.67;;;1.63;;
9968;SDS011;5025;48.890;9.278;2023-11-21T02:20:30;2.60;;;1.60;;
9968;SDS011;5025;48.890;9.278;2023-11-21T02:22:59;3.63;;;1.40;;
9968;SDS011;5025;48.890;9.278;2023-11-21T02:25:29;1.37;;;1.13;;
9968;SDS011;5025;48.890;9.278;2023-11-21T02:28:01;1.87;;;1.30;;
9968;SDS011;5025;48.890;9.278;2023-11-21T02:30:27;3.13;;;1.50;;
9968;SDS011;5025;48.890;9.278;2023-11-21T02:32:53;1.93;;;1.50;;
9968;SDS011;5025;48.890;9.278;2023-11-21T02:35:19;1.30;;;1.20;;
9968;SDS011;5025;48.890;9.278;2023-11-21T02:37:46;1.30;;;1.20;;
9968;SDS011;5025;48.890;9.278;2023-11-21T02:40:12;1.40;;;1.30;;
9968;SDS011;5025;48.890;9.278;2023-11-21T02:42:37;2.40;;;1.30;;
9968;SDS011;5025;48.890;9.278;2023-11-21T02:45:04;1.37;;;1.10;;
9968;SDS011;5025;48.890;9.278;2023-11-21T02:47:30;1.60;;;1.20;;
9968;SDS011;5025;48.890;9.278;2023-11-21T02:49:55;1.93;;;1.40;;
9968;SDS011;5025;48.890;9.278;2023-11-21T02:52:21;2.37;;;1.30;;
9968;SDS011;5025;48.890;9.278;2023-11-21T02:54:46;0.93;;;0.93;;
9968;SDS011;5025;48.890;9.278;2023-11-21T02:57:11;1.40;;;1.30;;
9968;SDS011;5025;48.890;9.278;2023-11-21T02:59:37;1.30;;;1.20;;
9968;SDS011;5025;48.890;9.278;2023-11-21T03:02:02;2.10;;;1.20;;
9968;SDS011;5025;48.890;9.278;2023-11-21T03:04:27;1.80;;;1.27;;
9968;SDS011;5025;48.890;9.278;2023-11-21T03:06:53;2.33;;;1.30;;
9968;SDS011;5025;48.890;9.278;2023-11-21T03:09:18;1.40;;;1.30;;
9968;SDS011;5025;48.890;9.278;2023-11-21T03:11:43;1.40;;;1.30;;
9968;SDS011;5025;48.890;9.278;2023-11-21T03:14:08;1.40;;;1.30;;
9968;SDS011;5025;48.890;9.278;2023-11-21T03:16:34;1.20;;;1.10;;
9968;SDS011;5025;48.890;9.278;2023-11-21T03:18:59;1.43;;;1.30;;
9968;SDS011;5025;48.890;9.278;2023-11-21T03:21:24;1.70;;;1.40;;
9968;SDS011;5025;48.890;9.278;2023-11-21T03:23:51;1.30;;;1.20;;
9968;SDS011;5025;48.890;9.278;2023-11-21T03:26:17;1.30;;;1.10;;
9968;SDS011;5025;48.890;9.278;2023-11-21T03:28:42;1.37;;;1.27;;
9968;SDS011;5025;48.890;9.278;2023-11-21T03:31:08;1.07;;;0.97;;
9968;SDS011;5025;48.890;9.278;2023-11-21T03:33:36;1.20;;;1.20;;
9968;SDS011;5025;48.890;9.278;2023-11-21T03:36:01;1.67;;;1.17;;
9968;SDS011;5025;48.890;9.278;2023-11-21T03:38:28;1.20;;;0.97;;
9968;SDS011;5025;48.890;9.278;2023-11-21T03:40:54;1.20;;;1.00;;
9968;SDS011;5025;48.890;9.278;2023-11-21T03:43:19;1.27;;;1.00;;
9968;SDS011;5025;48.890;9.278;2023-11-21T03:45:44;1.37;;;1.10;;
9968;SDS011;5025;48.890;9.278;2023-11-21T03:48:09;1.53;;;1.00;;
9968;SDS011;5025;48.890;9.278;2023-11-21T03:50:37;1.07;;;1.00;;
9968;SDS011;5025;48.890;9.278;2023-11-21T03:53:02;1.00;;;0.97;;
9968;SDS011;5025;48.890;9.278;2023-11-21T03:55:28;1.00;;;0.90;;
9968;SDS011;5025;48.890;9.278;2023-11-21T03:57:56;1.90;;;1.10;;
9968;SDS011;5025;48.890;9.278;2023-11-21T04:00:21;1.57;;;1.47;;
9968;SDS011;5025;48.890;9.278;2023-11-21T04:02:47;2.10;;;2.00;;
9968;SDS011;5025;48.890;9.278;2023-11-21T04:05:12;2.40;;;2.20;;
9968;SDS011;5025;48.890;9.278;2023-11-21T04:07:38;2.47;;;2.30;;
9968;SDS011;5025;48.890;9.278;2023-11-21T04:10:07;2.20;;;1.97;;
9968;SDS011;5025;48.890;9.278;2023-11-21T04:12:37;3.60;;;2.03;;
9968;SDS011;5025;48.890;9.278;2023-11-21T04:15:03;2.30;;;1.87;;
9968;SDS011;5025;48.890;9.278;2023-11-21T04:17:29;1.47;;;1.33;;
9968;SDS011;5025;48.890;9.278;2023-11-21T04:19:54;1.87;;;1.20;;
9968;SDS011;5025;48.890;9.278;2023-11-21T04:22:19;1.73;;;1.50;;
9968;SDS011;5025;48.890;9.278;2023-11-21T04:24:44;2.37;;;1.40;;
9968;SDS011;5025;48.890;9.278;2023-11-21T04:27:10;1.10;;;1.00;;
9968;SDS011;5025;48.890;9.278;2023-11-21T04:29:35;1.60;;;1.20;;
9968;SDS011;5025;48.890;9.278;2023-11-21T04:32:01;1.00;;;0.93;;
9968;SDS011;5025;48.890;9.278;2023-11-21T04:34:27;1.40;;;0.90;;
9968;SDS011;5025;48.890;9.278;2023-11-21T04:36:55;1.20;;;1.10;;
9968;SDS011;5025;48.890;9.278;2023-11-21T04:39:20;1.30;;;1.20;;
9968;SDS011;5025;48.890;9.278;2023-11-21T04:41:46;0.97;;;0.97;;
9968;SDS011;5025;48.890;9.278;2023-11-21T04:44:11;1.13;;;1.00;;
9968;SDS011;5025;48.890;9.278;2023-11-21T04:46:36;1.17;;;1.10;;
9968;SDS011;5025;48.890;9.278;2023-11-21T04:49:01;0.70;;;0.70;;
9968;SDS011;5025;48.890;9.278;2023-11-21T04:51:27;1.07;;;1.00;;
9968;SDS011;5025;48.890;9.278;2023-11-21T04:53:52;0.90;;;0.90;;
9968;SDS011;5025;48.890;9.278;2023-11-21T04:56:17;0.97;;;0.97;;
9968;SDS011;5025;48.890;9.278;2023-11-21T04:58:44;1.13;;;1.03;;
9968;SDS011;5025;48.890;9.278;2023-11-21T05:01:09;1.00;;;1.00;;
9968;SDS011;5025;48.890;9.278;2023-11-21T05:03:35;1.10;;;1.00;;
9968;SDS011;5025;48.890;9.278;2023-11-21T05:06:00;1.10;;;1.10;;
9968;SDS011;5025;48.890;9.278;2023-11-21T05:08:25;0.90;;;0.90;;
9968;SDS011;5025;48.890;9.278;2023-11-21T05:10:51;1.40;;;1.00;;
9968;SDS011;5025;48.890;9.278;2023-11-21T05:13:17;0.70;;;0.70;;
9968;SDS011;5025;48.890;9.278;2023-11-21T05:15:43;0.80;;;0.80;;
9968;SDS011;5025;48.890;9.278;2023-11-21T05:18:09;1.00;;;0.90;;
9968;SDS011;5025;48.890;9.278;2023-11-21T05:20:35;0.93;;;0.93;;
9968;SDS011;5025;48.890;9.278;2023-11-21T05:23:01;0.93;;;0.87;;
9968;SDS011;5025;48.890;9.278;2023-11-21T05:25:26;0.90;;;0.90;;
9968;SDS011;5025;48.890;9.278;2023-11-21T05:27:51;1.10;;;1.10;;
9968;SDS011;5025;48.890;9.278;2023-11-21T05:30:18;1.43;;;1.33;;
9968;SDS011;5025;48.890;9.278;2023-11-21T05:32:43;1.10;;;1.10;;
9968;SDS011;5025;48.890;9.278;2023-11-21T05:35:08;1.37;;;1.10;;
9968;SDS011;5025;48.890;9.278;2023-11-21T05:37:37;1.43;;;1.33;;
9968;SDS011;5025;48.890;9.278;2023-11-21T05:40:04;1.03;;;1.03;;
9968;SDS011;5025;48.890;9.278;2023-11-21T05:42:31;1.57;;;1.20;;
9968;SDS011;5025;48.890;9.278;2023-11-21T05:44:57;1.00;;;1.00;;
9968;SDS011;5025;48.890;9.278;2023-11-21T05:47:24;1.00;;;0.90;;
9968;SDS011;5025;48.890;9.278;2023-11-21T05:49:51;1.00;;;1.00;;
9968;SDS011;5025;48.890;9.278;2023-11-21T05:52:17;0.87;;;0.87;;
9968;SDS011;5025;48.890;9.278;2023-11-21T05:54:43;1.10;;;1.10;;
9968;SDS011;5025;48.890;9.278;2023-11-21T05:57:08;1.07;;;1.00;;
9968;SDS011;5025;48.890;9.278;2023-11-21T05:59:33;1.20;;;1.00;;
9968;SDS011;5025;48.890;9.278;2023-11-21T06:01:59;0.90;;;0.90;;
9968;SDS011;5025;48.890;9.278;2023-11-21T06:04:24;0.77;;;0.77;;
9968;SDS011;5025;48.890;9.278;2023-11-21T06:06:50;0.93;;;0.93;;
9968;SDS011;5025;48.890;9.278;2023-11-21T06:09:17;1.13;;;1.03;;
9968;SDS011;5025;48.890;9.278;2023-11-21T06:11:42;1.10;;;1.10;;
9968;SDS011;5025;48.890;9.278;2023-11-21T06:14:07;1.40;;;1.00;;
9968;SDS011;5025;48.890;9.278;2023-11-21T06:16:34;1.33;;;0.87;;
9968;SDS011;5025;48.890;9.278;2023-11-21T06:18:59;1.20;;;1.20;;
9968;SDS011;5025;48.890;9.278;2023-11-21T06:21:25;1.10;;;1.10;;
9968;SDS011;5025;48.890;9.278;2023-11-21T06:23:50;0.93;;;0.93;;
9968;SDS011;5025;48.890;9.278;2023-11-21T06:26:15;1.03;;;1.00;;
9968;SDS011;5025;48.890;9.278;2023-11-21T06:28:40;0.90;;;0.90;;
9968;SDS011;5025;48.890;9.278;2023-11-21T06:31:06;0.97;;;0.97;;
9968;SDS011;5025;48.890;9.278;2023-11-21T06:33:31;1.17;;;1.00;;
9968;SDS011;5025;48.890;9.278;2023-11-21T06:35:57;0.90;;;0.90;;
9968;SDS011;5025;48.890;9.278;2023-11-21T06:38:23;1.33;;;1.00;;
9968;SDS011;5025;48.890;9.278;2023-11-21T06:40:48;1.10;;;1.10;;
9968;SDS011;5025;48.890;9.278;2023-11-21T06:43:13;1.10;;;0.90;;
9968;SDS011;5025;48.890;9.278;2023-11-21T06:45:40;1.47;;;0.90;;
9968;SDS011;5025;48.890;9.278;2023-11-21T06:48:05;1.20;;;1.20;;
9968;SDS011;5025;48.890;9.278;2023-11-21T06:50:31;1.07;;;1.07;;
9968;SDS011;5025;48.890;9.278;2023-11-21T06:52:56;1.40;;;1.30;;
9968;SDS011;5025;48.890;9.278;2023-11-21T06:55:21;1.50;;;1.50;;
9968;SDS011;5025;48.890;9.278;2023-11-21T06:57:46;1.67;;;1.50;;
9968;SDS011;5025;48.890;9.278;2023-11-21T07:00:12;1.30;;;1.30;;
9968;SDS011;5025;48.890;9.278;2023-11-21T07:02:40;1.33;;;1.30;;
9968;SDS011;5025;48.890;9.278;2023-11-21T07:05:05;1.47;;;1.27;;
9968;SDS011;5025;48.890;9.278;2023-11-21T07:07:31;1.40;;;1.30;;
9968;SDS011;5025;48.890;9.278;2023-11-21T07:09:56;1.40;;;1.30;;
9968;SDS011;5025;48.890;9.278;2023-11-21T07:12:21;1.40;;;1.30;;
9968;SDS011;5025;48.890;9.278;2023-11-21T07:14:48;2.17;;;2.07;;
9968;SDS011;5025;48.890;9.278;2023-11-21T07:17:14;2.20;;;2.10;;
9968;SDS011;5025;48.890;9.278;2023-11-21T07:19:39;2.20;;;2.10;;
9968;SDS011;5025;48.890;9.278;2023-11-21T07:22:04;2.33;;;2.23;;
9968;SDS011;5025;48.890;9.278;2023-11-21T07:24:30;2.20;;;2.10;;
9968;SDS011;5025;48.890;9.278;2023-11-21T07:26:56;2.33;;;2.10;;
9968;SDS011;5025;48.890;9.278;2023-11-21T07:29:23;2.37;;;2.27;;
9968;SDS011;5025;48.890;9.278;2023-11-21T07:31:50;2.27;;;2.17;;
9968;SDS011;5025;48.890;9.278;2023-11-21T07:34:15;2.17;;;2.07;;
9968;SDS011;5025;48.890;9.278;2023-11-21T07:36:41;2.50;;;2.40;;
9968;SDS011;5025;48.890;9.278;2023-11-21T07:39:06;2.30;;;2.10;;
9968;SDS011;5025;48.890;9.278;2023-11-21T07:41:31;2.20;;;2.10;;
9968;SDS011;5025;48.890;9.278;2023-11-21T07:43:57;2.90;;;2.70;;
9968;SDS011;5025;48.890;9.278;2023-11-21T07:46:22;2.70;;;2.50;;
9968;SDS011;5025;48.890;9.278;2023-11-21T07:48:48;2.70;;;2.50;;
9968;SDS011;5025;48.890;9.278;2023-11-21T07:51:14;2.50;;;2.40;;
9968;SDS011;5025;48.890;9.278;2023-11-21T07:53:39;2.10;;;2.00;;
9968;SDS011;5025;48.890;9.278;2023-11-21T07:56:05;2.20;;;2.10;;
9968;SDS011;5025;48.890;9.278;2023-11-21T07:58:32;1.93;;;1.83;;
9968;SDS011;5025;48.890;9.278;2023-11-21T08:00:58;2.00;;;1.90;;
9968;SDS011;5025;48.890;9.278;2023-11-21T08:03:24;1.80;;;1.70;;
9968;SDS011;5025;48.890;9.278;2023-11-21T08:05:51;1.47;;;1.40;;
9968;SDS011;5025;48.890;9.278;2023-11-21T08:08:16;1.60;;;1.50;;
9968;SDS011;5025;48.890;9.278;2023-11-21T08:10:43;1.73;;;1.63;;
9968;SDS011;5025;48.890;9.278;2023-11-21T08:13:11;1.53;;;1.43;;
9968;SDS011;5025;48.890;9.278;2023-11-21T08:15:39;1.40;;;1.40;;
9968;SDS011;5025;48.890;9.278;2023-11-21T08:18:05;1.70;;;1.60;;
9968;SDS011;5025;48.890;9.278;2023-11-21T08:20:32;2.00;;;1.90;;
9968;SDS011;5025;48.890;9.278;2023-11-21T08:22:58;1.87;;;1.77;;
9968;SDS011;5025;48.890;9.278;2023-11-21T08:25:23;2.07;;;1.90;;
9968;SDS011;5025;48.890;9.278;2023-11-21T08:27:48;1.80;;;1.70;;
9968;SDS011;5025;48.890;9.278;2023-11-21T08:30:14;1.97;;;1.87;;
9968;SDS011;5025;48.890;9.278;2023-11-21T08:32:41;2.10;;;2.00;;
9968;SDS011;5025;48.890;9.278;2023-11-21T08:35:07;2.37;;;2.27;;
9968;SDS011;5025;48.890;9.278;2023-11-21T08:37:33;2.70;;;2.60;;
9968;SDS011;5025;48.890;9.278;2023-11-21T08:40:02;2.50;;;2.40;;
9968;SDS011;5025;48.890;9.278;2023-11-21T08:42:28;2.90;;;2.70;;
9968;SDS011;5025;48.890;9.278;2023-11-21T08:44:54;2.50;;;2.40;;
9968;SDS011;5025;48.890;9.278;2023-11-21T08:47:22;2.87;;;2.67;;
9968;SDS011;5025;48.890;9.278;2023-11-21T08:49:49;2.40;;;2.30;;
9968;SDS011;5025;48.890;9.278;2023-11-21T08:52:17;3.87;;;3.57;;
9968;SDS011;5025;48.890;9.278;2023-11-21T08:54:42;3.60;;;3.40;;
9968;SDS011;5025;48.890;9.278;2023-11-21T08:57:08;3.63;;;3.33;;
9968;SDS011;5025;48.890;9.278;2023-11-21T08:59:34;3.50;;;3.20;;
9968;SDS011;5025;48.890;9.278;2023-11-21T09:01:59;3.97;;;3.57;;
9968;SDS011;5025;48.890;9.278;2023-11-21T09:04:24;3.23;;;2.93;;
9968;SDS011;5025;48.890;9.278;2023-11-21T09:06:50;2.90;;;2.70;;
9968;SDS011;5025;48.890;9.278;2023-11-21T09:09:15;2.73;;;2.50;;
9968;SDS011;5025;48.890;9.278;2023-11-21T09:11:40;2.40;;;2.30;;
9968;SDS011;5025;48.890;9.278;2023-11-21T09:14:06;3.10;;;2.60;;
9968;SDS011;5025;48.890;9.278;2023-11-21T09:16:31;2.20;;;2.10;;
9968;SDS011;5025;48.890;9.278;2023-11-21T09:18:56;2.90;;;2.60;;
9968;SDS011;5025;48.890;9.278;2023-11-21T09:21:22;3.10;;;2.37;;
9968;SDS011;5025;48.890;9.278;2023-11-21T09:23:48;2.60;;;2.40;;
9968;SDS011;5025;48.890;9.278;2023-11-21T09:26:13;2.20;;;2.07;;
9968;SDS011;5025;48.890;9.278;2023-11-21T09:28:41;1.90;;;1.80;;
9968;SDS011;5025;48.890;9.278;2023-11-21T09:31:09;1.77;;;1.60;;
9968;SDS011;5025;48.890;9.278;2023-11-21T09:33:34;1.83;;;1.73;;
9968;SDS011;5025;48.890;9.278;2023-11-21T09:36:00;1.90;;;1.80;;
9968;SDS011;5025;48.890;9.278;2023-11-21T09:38:26;1.90;;;1.80;;
9968;SDS011;5025;48.890;9.278;2023-11-21T09:40:53;1.90;;;1.80;;
9968;SDS011;5025;48.890;9.278;2023-11-21T09:43:20;1.90;;;1.70;;
9968;SDS011;5025;48.890;9.278;2023-11-21T09:45:47;1.80;;;1.70;;
9968;SDS011;5025;48.890;9.278;2023-11-21T09:48:16;2.30;;;1.60;;
9968;SDS011;5025;48.890;9.278;2023-11-21T09:50:42;1.70;;;1.60;;
9968;SDS011;5025;48.890;9.278;2023-11-21T09:53:13;1.60;;;1.50;;
9968;SDS011;5025;48.890;9.278;2023-11-21T09:55:43;1.70;;;1.40;;
9968;SDS011;5025;48.890;9.278;2023-11-21T09:58:10;1.60;;;1.50;;
9968;SDS011;5025;48.890;9.278;2023-11-21T10:00:41;1.67;;;1.60;;
9968;SDS011;5025;48.890;9.278;2023-11-21T10:03:08;2.13;;;1.97;;
9968;SDS011;5025;48.890;9.278;2023-11-21T10:05:34;1.83;;;1.80;;
9968;SDS011;5025;48.890;9.278;2023-11-21T10:08:00;1.50;;;1.50;;
9968;SDS011;5025;48.890;9.278;2023-11-21T10:10:26;1.90;;;1.80;;
9968;SDS011;5025;48.890;9.278;2023-11-21T10:12:55;2.40;;;1.63;;
9968;SDS011;5025;48.890;9.278;2023-11-21T10:15:22;1.80;;;1.70;;
9968;SDS011;5025;48.890;9.278;2023-11-21T10:17:50;2.27;;;1.73;;
9968;SDS011;5025;48.890;9.278;2023-11-21T10:20:18;1.50;;;1.40;;
9968;SDS011;5025;48.890;9.278;2023-11-21T10:22:44;0.93;;;0.93;;
9968;SDS011;5025;48.890;9.278;2023-11-21T10:25:10;0.90;;;0.90;;
9968;SDS011;5025;48.890;9.278;2023-11-21T10:27:39;0.70;;;0.70;;
9968;SDS011;5025;48.890;9.278;2023-11-21T10:30:06;0.67;;;0.67;;
9968;SDS011;5025;48.890;9.278;2023-11-21T10:32:33;0.70;;;0.70;;
9968;SDS011;5025;48.890;9.278;2023-11-21T10:34:58;0.83;;;0.83;;
9968;SDS011;5025;48.890;9.278;2023-11-21T10:37:31;0.90;;;0.90;;
9968;SDS011;5025;48.890;9.278;2023-11-21T10:39:59;1.10;;;1.10;;
9968;SDS011;5025;48.890;9.278;2023-11-21T10:42:25;1.10;;;1.10;;
9968;SDS011;5025;48.890;9.278;2023-11-21T10:44:52;1.53;;;0.90;;
9968;SDS011;5025;48.890;9.278;2023-11-21T10:47:17;1.00;;;1.00;;
9968;SDS011;5025;48.890;9.278;2023-11-21T10:49:44;1.27;;;1.27;;
9968;SDS011;5025;48.890;9.278;2023-11-21T10:52:12;1.10;;;1.10;;
9968;SDS011;5025;48.890;9.278;2023-11-21T10:54:42;1.33;;;1.07;;
9968;SDS011;5025;48.890;9.278;2023-11-21T10:57:08;1.13;;;1.10;;
9968;SDS011;5025;48.890;9.278;2023-11-21T10:59:35;1.10;;;1.10;;
9968;SDS011;5025;48.890;9.278;2023-11-21T11:02:01;1.27;;;1.27;;
9968;SDS011;5025;48.890;9.278;2023-11-21T11:04:36;1.40;;;1.30;;
9968;SDS011;5025;48.890;9.278;2023-11-21T11:07:03;1.40;;;1.30;;
9968;SDS011;5025;48.890;9.278;2023-11-21T11:09:34;1.20;;;1.20;;
9968;SDS011;5025;48.890;9.278;2023-11-21T11:12:01;1.17;;;1.17;;
9968;SDS011;5025;48.890;9.278;2023-11-21T11:14:27;1.40;;;1.33;;
9968;SDS011;5025;48.890;9.278;2023-11-21T11:16:53;2.10;;;2.00;;
9968;SDS011;5025;48.890;9.278;2023-11-21T11:19:20;2.07;;;1.70;;
9968;SDS011;5025;48.890;9.278;2023-11-21T11:24:45;1.57;;;1.57;;
9968;SDS011;5025;48.890;9.278;2023-11-21T11:30:18;1.40;;;1.40;;
9968;SDS011;5025;48.890;9.278;2023-11-21T11:38:18;1.73;;;1.67;;
9968;SDS011;5025;48.890;9.278;2023-11-21T11:40:47;1.70;;;1.60;;
9968;SDS011;5025;48.890;9.278;2023-11-21T11:43:12;1.50;;;1.50;;
9968;SDS011;5025;48.890;9.278;2023-11-21T11:45:38;1.63;;;1.53;;
9968;SDS011;5025;48.890;9.278;2023-11-21T11:48:07;2.90;;;1.80;;
9968;SDS011;5025;48.890;9.278;2023-11-21T11:50:32;1.50;;;1.40;;
9968;SDS011;5025;48.890;9.278;2023-11-21T11:53:12;1.20;;;1.20;;
9968;SDS011;5025;48.890;9.278;2023-11-21T11:55:38;1.40;;;1.30;;
9968;SDS011;5025;48.890;9.278;2023-11-21T11:58:05;1.10;;;1.10;;
9968;SDS011;5025;48.890;9.278;2023-11-21T12:00:34;1.20;;;1.20;;
9968;SDS011;5025;48.890;9.278;2023-11-21T12:03:03;1.43;;;1.43;;
9968;SDS011;5025;48.890;9.278;2023-11-21T12:05:31;1.30;;;1.30;;
9968;SDS011;5025;48.890;9.278;2023-11-21T12:08:01;1.30;;;1.30;;
9968;SDS011;5025;48.890;9.278;2023-11-21T12:10:29;1.23;;;1.23;;
9968;SDS011;5025;48.890;9.278;2023-11-21T12:13:06;1.20;;;1.20;;
9968;SDS011;5025;48.890;9.278;2023-11-21T12:15:33;1.40;;;1.40;;
9968;SDS011;5025;48.890;9.278;2023-11-21T12:17:58;1.10;;;1.10;;
9968;SDS011;5025;48.890;9.278;2023-11-21T12:20:25;1.10;;;1.10;;
9968;SDS011;5025;48.890;9.278;2023-11-21T12:22:52;1.23;;;1.23;;
9968;SDS011;5025;48.890;9.278;2023-11-21T12:25:25;1.00;;;1.00;;
9968;SDS011;5025;48.890;9.278;2023-11-21T12:27:57;1.10;;;1.10;;
9968;SDS011;5025;48.890;9.278;2023-11-21T12:30:23;1.13;;;1.13;;
9968;SDS011;5025;48.890;9.278;2023-11-21T12:32:53;1.20;;;1.20;;
9968;SDS011;5025;48.890;9.278;2023-11-21T12:35:20;1.50;;;1.40;;
9968;SDS011;5025;48.890;9.278;2023-11-21T12:37:47;1.10;;;1.10;;
9968;SDS011;5025;48.890;9.278;2023-11-21T12:40:14;1.17;;;1.17;;
9968;SDS011;5025;48.890;9.278;2023-11-21T12:42:47;1.37;;;1.37;;
9968;SDS011;5025;48.890;9.278;2023-11-21T12:47:40;1.43;;;1.43;;
9968;SDS011;5025;48.890;9.278;2023-11-21T12:50:06;1.20;;;1.20;;
9968;SDS011;5025;48.890;9.278;2023-11-21T12:52:39;1.20;;;1.20;;
9968;SDS011;5025;48.890;9.278;2023-11-21T12:55:04;1.30;;;1.30;;
9968;SDS011;5025;48.890;9.278;2023-11-21T12:57:32;1.43;;;1.43;;
9968;SDS011;5025;48.890;9.278;2023-11-21T12:59:58;1.40;;;1.40;;
9968;SDS011;5025;48.890;9.278;2023-11-21T13:02:29;1.20;;;1.20;;
9968;SDS011;5025;48.890;9.278;2023-11-21T13:04:56;1.20;;;1.20;;
9968;SDS011;5025;48.890;9.278;2023-11-21T13:07:23;1.57;;;1.53;;
9968;SDS011;5025;48.890;9.278;2023-11-21T13:09:51;1.90;;;1.80;;
9968;SDS011;5025;48.890;9.278;2023-11-21T13:12:17;1.90;;;1.80;;
9968;SDS011;5025;48.890;9.278;2023-11-21T13:14:45;2.10;;;2.00;;
9968;SDS011;5025;48.890;9.278;2023-11-21T13:17:11;1.87;;;1.80;;
9968;SDS011;5025;48.890;9.278;2023-11-21T13:19:37;1.90;;;1.80;;
9968;SDS011;5025;48.890;9.278;2023-11-21T13:22:03;1.90;;;1.90;;
9968;SDS011;5025;48.890;9.278;2023-11-21T13:24:29;1.90;;;1.80;;
9968;SDS011;5025;48.890;9.278;2023-11-21T13:26:54;1.87;;;1.80;;
9968;SDS011;5025;48.890;9.278;2023-11-21T13:29:19;1.47;;;1.47;;
9968;SDS011;5025;48.890;9.278;2023-11-21T13:31:45;1.60;;;1.60;;
9968;SDS011;5025;48.890;9.278;2023-11-21T13:34:11;1.50;;;1.50;;
9968;SDS011;5025;48.890;9.278;2023-11-21T13:36:39;1.50;;;1.50;;
9968;SDS011;5025;48.890;9.278;2023-11-21T13:39:07;1.50;;;1.50;;
9968;SDS011;5025;48.890;9.278;2023-11-21T13:41:36;1.57;;;1.53;;
9968;SDS011;5025;48.890;9.278;2023-11-21T13:44:03;1.80;;;1.50;;
9968;SDS011;5025;48.890;9.278;2023-11-21T13:46:40;1.30;;;1.30;;
9968;SDS011;5025;48.890;9.278;2023-11-21T13:49:06;1.40;;;1.40;;
9968;SDS011;5025;48.890;9.278;2023-11-21T13:51:34;1.27;;;1.20;;
9968;SDS011;5025;48.890;9.278;2023-11-21T13:54:09;1.10;;;1.10;;
9968;SDS011;5025;48.890;9.278;2023-11-21T13:56:35;1.37;;;1.37;;
9968;SDS011;5025;48.890;9.278;2023-11-21T13:59:01;1.30;;;1.30;;
9968;SDS011;5025;48.890;9.278;2023-11-21T14:01:34;1.00;;;1.00;;
9968;SDS011;5025;48.890;9.278;2023-11-21T14:04:32;1.00;;;1.00;;
9968;SDS011;5025;48.890;9.278;2023-11-21T14:06:57;1.00;;;1.00;;
9968;SDS011;5025;48.890;9.278;2023-11-21T14:09:25;0.93;;;0.93;;
9968;SDS011;5025;48.890;9.278;2023-11-21T14:11:57;0.97;;;0.97;;
9968;SDS011;5025;48.890;9.278;2023-11-21T14:14:24;0.80;;;0.80;;
9968;SDS011;5025;48.890;9.278;2023-11-21T14:16:51;0.70;;;0.70;;
9968;SDS011;5025;48.890;9.278;2023-11-21T14:19:16;0.70;;;0.70;;
9968;SDS011;5025;48.890;9.278;2023-11-21T14:21:43;0.80;;;0.80;;
9968;SDS011;5025;48.890;9.278;2023-11-21T14:24:09;0.50;;;0.50;;
9968;SDS011;5025;48.890;9.278;2023-11-21T14:26:34;0.67;;;0.67;;
9968;SDS011;5025;48.890;9.278;2023-11-21T14:29:00;0.80;;;0.80;;
9968;SDS011;5025;48.890;9.278;2023-11-21T14:31:26;1.33;;;0.70;;
9968;SDS011;5025;48.890;9.278;2023-11-21T14:33:52;2.20;;;0.70;;
9968;SDS011;5025;48.890;9.278;2023-11-21T14:36:18;0.87;;;0.87;;
9968;SDS011;5025;48.890;9.278;2023-11-21T14:38:43;1.23;;;0.93;;
9968;SDS011;5025;48.890;9.278;2023-11-21T14:41:08;0.90;;;0.80;;
9968;SDS011;5025;48.890;9.278;2023-11-21T14:43:36;0.70;;;0.70;;
9968;SDS011;5025;48.890;9.278;2023-11-21T14:46:02;1.67;;;0.80;;
9968;SDS011;5025;48.890;9.278;2023-11-21T14:48:41;1.70;;;1.17;;
9968;SDS011;5025;48.890;9.278;2023-11-21T14:51:12;1.37;;;1.00;;
9968;SDS011;5025;48.890;9.278;2023-11-21T14:53:52;1.03;;;1.03;;
9968;SDS011;5025;48.890;9.278;2023-11-21T14:56:21;1.23;;;1.13;;
9968;SDS011;5025;48.890;9.278;2023-11-21T14:58:51;1.30;;;1.13;;
9968;SDS011;5025;48.890;9.278;2023-11-21T15:01:18;1.43;;;1.20;;
9968;SDS011;5025;48.890;9.278;2023-11-21T15:03:55;1.20;;;1.10;;
9968;SDS011;5025;48.890;9.278;2023-11-21T15:06:20;1.33;;;1.23;;
9968;SDS011;5025;48.890;9.278;2023-11-21T15:08:55;1.10;;;1.10;;
9968;SDS011;5025;48.890;9.278;2023-11-21T15:11:32;2.13;;;1.30;;
9968;SDS011;5025;48.890;9.278;2023-11-21T15:13:58;1.37;;;1.10;;
9968;SDS011;5025;48.890;9.278;2023-11-21T15:16:24;1.10;;;1.10;;
9968;SDS011;5025;48.890;9.278;2023-11-21T15:18:51;1.60;;;1.30;;
9968;SDS011;5025;48.890;9.278;2023-11-21T15:21:19;1.43;;;1.30;;
9968;SDS011;5025;48.890;9.278;2023-11-21T15:23:47;1.70;;;1.60;;
9968;SDS011;5025;48.890;9.278;2023-11-21T15:26:12;1.57;;;1.40;;